createdAt,value
2018-12-09T00:00:02.222Z,8.80
2018-12-09T00:02:32.319Z,8.80
2018-12-09T00:05:02.362Z,8.80
2018-12-09T00:07:32.442Z,8.70
2018-12-09T00:10:02.570Z,8.70
2018-12-09T00:12:32.637Z,8.70
2018-12-09T00:15:02.687Z,8.70
2018-12-09T00:17:33.132Z,8.60
2018-12-09T00:20:03.178Z,8.60
2018-12-09T00:22:33.269Z,8.60
2018-12-09T00:25:03.396Z,8.60
2018-12-09T00:27:33.470Z,8.70
2018-12-09T00:30:03.552Z,8.70
2018-12-09T00:32:33.694Z,8.70
2018-12-09T00:35:03.955Z,8.70
2018-12-09T00:37:34.218Z,8.70
2018-12-09T00:40:05.272Z,8.70
2018-12-09T00:42:43.243Z,8.70
2018-12-09T00:45:07.456Z,8.70
2018-12-09T00:47:37.545Z,8.80
2018-12-09T00:50:07.649Z,8.90
2018-12-09T00:52:37.727Z,8.90
2018-12-09T00:55:07.842Z,8.90
2018-12-09T00:57:37.916Z,8.80
2018-12-09T01:00:11.325Z,8.80
2018-12-09T01:02:45.385Z,8.80
2018-12-09T01:08:16.030Z,8.80
2018-12-09T01:13:54.224Z,8.80
2018-12-09T01:16:36.515Z,8.70
2018-12-09T01:22:13.362Z,8.70
2018-12-09T01:24:43.413Z,8.70
2018-12-09T01:27:13.653Z,8.80
2018-12-09T01:29:43.706Z,8.80
2018-12-09T01:32:13.729Z,8.80
2018-12-09T01:34:43.786Z,8.70
2018-12-09T01:37:13.824Z,8.70
2018-12-09T01:39:43.874Z,8.70
2018-12-09T01:42:13.894Z,8.70
2018-12-09T01:44:46.052Z,8.70
2018-12-09T01:47:16.081Z,8.80
2018-12-09T01:49:46.129Z,8.80
2018-12-09T01:52:16.167Z,8.80
2018-12-09T01:54:46.222Z,8.80
2018-12-09T01:57:16.343Z,8.80
2018-12-09T01:59:46.402Z,8.80
2018-12-09T02:02:16.437Z,8.90
2018-12-09T02:04:46.491Z,8.80
2018-12-09T02:07:16.519Z,8.90
2018-12-09T02:09:46.568Z,8.90
2018-12-09T02:12:16.622Z,8.90
2018-12-09T02:14:46.625Z,8.80
2018-12-09T02:17:16.658Z,8.90
2018-12-09T02:19:46.777Z,8.90
2018-12-09T02:22:16.804Z,8.80
2018-12-09T02:24:46.856Z,8.90
2018-12-09T02:27:16.990Z,8.90
2018-12-09T02:29:47.142Z,8.80
2018-12-09T02:32:17.174Z,8.90
2018-12-09T02:34:51.819Z,8.90
2018-12-09T02:37:21.929Z,8.90
2018-12-09T02:39:52.185Z,8.80
2018-12-09T02:42:22.301Z,8.80
2018-12-09T02:44:52.364Z,8.80
2018-12-09T02:47:22.397Z,8.80
2018-12-09T02:49:52.461Z,8.80
2018-12-09T02:52:22.581Z,8.60
2018-12-09T02:54:52.647Z,8.60
2018-12-09T02:57:22.792Z,8.60
2018-12-09T02:59:52.962Z,8.60
2018-12-09T03:02:23.094Z,8.50
2018-12-09T03:04:53.160Z,8.50
2018-12-09T03:07:23.402Z,8.30
2018-12-09T03:09:53.465Z,8.30
2018-12-09T03:12:24.007Z,8.30
2018-12-09T03:14:54.060Z,8.20
2018-12-09T03:17:24.102Z,8.20
2018-12-09T03:19:54.279Z,8.20
2018-12-09T03:22:24.823Z,8.20
2018-12-09T03:25:13.666Z,8.10
2018-12-09T03:27:43.718Z,8.20
2018-12-09T03:30:13.977Z,8.10
2018-12-09T03:32:44.025Z,8.10
2018-12-09T03:35:14.164Z,8.00
2018-12-09T03:37:44.216Z,7.90
2018-12-09T03:40:14.470Z,7.80
2018-12-09T03:42:44.587Z,7.80
2018-12-09T03:45:14.717Z,7.70
2018-12-09T03:47:44.755Z,7.70
2018-12-09T03:50:28.389Z,7.60
2018-12-09T03:52:58.526Z,7.60
2018-12-09T03:55:44.597Z,7.60
2018-12-09T03:58:14.721Z,7.60
2018-12-09T04:00:44.854Z,7.60
2018-12-09T04:03:14.898Z,7.50
2018-12-09T04:05:45.053Z,7.60
2018-12-09T04:08:15.278Z,7.60
2018-12-09T04:10:45.637Z,7.60
2018-12-09T04:13:15.674Z,7.60
2018-12-09T04:15:46.036Z,7.50
2018-12-09T04:18:16.065Z,7.50
2018-12-09T04:20:46.120Z,7.60
2018-12-09T04:23:16.161Z,7.60
2018-12-09T04:25:46.219Z,7.60
2018-12-09T04:28:16.947Z,7.70
2018-12-09T04:30:47.003Z,7.70
2018-12-09T04:33:17.157Z,7.60
2018-12-09T04:35:47.410Z,7.60
2018-12-09T04:38:18.041Z,7.50
2018-12-09T04:40:48.096Z,7.60
2018-12-09T04:43:18.146Z,7.50
2018-12-09T04:45:48.315Z,7.50
2018-12-09T04:48:19.053Z,7.50
2018-12-09T04:50:49.173Z,7.50
2018-12-09T04:53:19.216Z,7.50
2018-12-09T04:55:49.379Z,7.50
2018-12-09T04:58:19.513Z,7.50
2018-12-09T05:00:55.625Z,7.50
2018-12-09T05:03:25.678Z,7.50
2018-12-09T05:05:55.728Z,7.50
2018-12-09T05:08:26.273Z,7.50
2018-12-09T05:10:56.345Z,7.50
2018-12-09T05:13:26.395Z,7.50
2018-12-09T05:15:56.640Z,7.50
2018-12-09T05:18:28.193Z,7.50
2018-12-09T05:20:58.269Z,7.50
2018-12-09T05:23:28.406Z,7.40
2018-12-09T05:25:58.693Z,7.40
2018-12-09T05:28:29.865Z,7.40
2018-12-09T05:31:00.136Z,7.40
2018-12-09T05:33:30.473Z,7.30
2018-12-09T05:36:01.397Z,7.40
2018-12-09T05:38:32.050Z,7.40
2018-12-09T05:41:02.298Z,7.40
2018-12-09T05:43:32.337Z,7.40
2018-12-09T05:46:02.389Z,7.40
2018-12-09T05:48:32.541Z,7.40
2018-12-09T05:51:03.201Z,7.30
2018-12-09T05:53:33.237Z,7.30
2018-12-09T05:56:03.392Z,7.20
2018-12-09T05:58:37.179Z,7.20
2018-12-09T06:01:07.729Z,7.10
2018-12-09T06:03:37.766Z,7.10
2018-12-09T06:06:07.957Z,7.10
2018-12-09T06:08:38.222Z,7.10
2018-12-09T06:11:08.485Z,7.10
2018-12-09T06:13:54.418Z,7.20
2018-12-09T06:19:00.644Z,7.20
2018-12-09T06:21:30.714Z,7.20
2018-12-09T06:24:02.412Z,7.20
2018-12-09T06:26:33.435Z,7.20
2018-12-09T06:29:03.473Z,7.10
2018-12-09T06:31:37.689Z,7.20
2018-12-09T06:34:14.010Z,7.20
2018-12-09T06:36:50.049Z,7.20
2018-12-09T06:39:20.103Z,7.10
2018-12-09T06:41:50.169Z,7.10
2018-12-09T06:44:20.710Z,7.10
2018-12-09T06:46:52.402Z,7.10
2018-12-09T06:49:29.001Z,7.10
2018-12-09T06:51:59.270Z,7.00
2018-12-09T06:54:29.421Z,7.10
2018-12-09T06:56:59.763Z,7.10
2018-12-09T06:59:31.311Z,7.00
2018-12-09T07:02:01.365Z,7.00
2018-12-09T07:04:31.401Z,7.10
2018-12-09T07:07:01.566Z,7.10
2018-12-09T07:09:31.603Z,7.10
2018-12-09T07:12:01.658Z,7.10
2018-12-09T07:14:31.806Z,7.10
2018-12-09T07:17:01.869Z,7.00
2018-12-09T07:19:32.013Z,7.00
2018-12-09T07:22:02.782Z,7.00
2018-12-09T07:24:32.824Z,6.90
2018-12-09T07:27:02.905Z,6.90
2018-12-09T07:29:32.954Z,6.90
2018-12-09T07:32:03.023Z,6.90
2018-12-09T07:34:33.166Z,7.00
2018-12-09T07:37:03.232Z,7.00
2018-12-09T07:39:33.372Z,7.00
2018-12-09T07:42:03.542Z,6.90
2018-12-09T07:44:33.698Z,6.90
2018-12-09T07:47:03.757Z,7.00
2018-12-09T07:49:33.804Z,6.90
2018-12-09T07:52:03.900Z,6.90
2018-12-09T07:54:33.948Z,7.00
2018-12-09T07:57:04.118Z,7.00
2018-12-09T07:59:34.160Z,7.00
2018-12-09T08:02:04.388Z,7.00
2018-12-09T08:04:34.452Z,7.10
2018-12-09T08:07:04.601Z,7.10
2018-12-09T08:09:34.637Z,7.10
2018-12-09T08:12:04.773Z,7.10
2018-12-09T08:14:34.810Z,7.10
2018-12-09T08:17:06.753Z,7.00
2018-12-09T08:19:38.557Z,7.00
2018-12-09T08:22:09.210Z,6.90
2018-12-09T08:24:39.266Z,6.80
2018-12-09T08:27:09.321Z,6.80
2018-12-09T08:29:39.792Z,6.90
2018-12-09T08:32:09.924Z,6.90
2018-12-09T08:34:41.074Z,6.90
2018-12-09T08:37:11.306Z,6.90
2018-12-09T08:39:42.043Z,7.00
2018-12-09T08:42:13.438Z,7.00
2018-12-09T08:44:44.653Z,7.00
2018-12-09T08:47:16.174Z,7.00
2018-12-09T08:49:46.386Z,7.00
2018-12-09T08:52:18.456Z,7.00
2018-12-09T08:54:48.497Z,7.00
2018-12-09T08:57:18.575Z,7.00
2018-12-09T08:59:48.685Z,7.00
2018-12-09T09:02:18.882Z,7.10
2018-12-09T09:04:49.808Z,7.00
2018-12-09T09:07:19.917Z,7.00
2018-12-09T09:09:50.019Z,7.10
2018-12-09T09:12:20.109Z,7.00
2018-12-09T09:14:50.422Z,7.10
2018-12-09T09:17:20.489Z,7.20
2018-12-09T09:19:50.550Z,7.20
2018-12-09T09:22:20.621Z,7.20
2018-12-09T09:24:50.725Z,7.20
2018-12-09T09:27:20.813Z,7.20
2018-12-09T09:29:50.943Z,7.20
2018-12-09T09:32:20.993Z,7.20
2018-12-09T09:34:51.108Z,7.20
2018-12-09T09:37:21.273Z,7.20
2018-12-09T09:39:51.309Z,7.10
2018-12-09T09:42:21.372Z,7.10
2018-12-09T09:44:51.406Z,7.20
2018-12-09T09:47:21.470Z,7.10
2018-12-09T09:49:51.513Z,7.10
2018-12-09T09:52:21.682Z,7.10
2018-12-09T09:54:52.005Z,7.00
2018-12-09T09:57:22.077Z,7.00
2018-12-09T09:59:52.117Z,7.00
2018-12-09T10:02:22.165Z,7.10
2018-12-09T10:04:52.209Z,7.00
2018-12-09T10:07:22.277Z,7.00
2018-12-09T10:09:52.417Z,7.00
2018-12-09T10:12:22.583Z,6.90
2018-12-09T10:14:52.612Z,6.80
2018-12-09T10:17:22.669Z,6.80
2018-12-09T10:19:52.713Z,6.80
2018-12-09T10:22:22.796Z,6.80
2018-12-09T10:24:52.835Z,6.70
2018-12-09T10:27:22.876Z,6.70
2018-12-09T10:29:52.906Z,6.70
2018-12-09T10:32:22.966Z,6.70
2018-12-09T10:34:52.991Z,6.70
2018-12-09T10:37:23.062Z,6.70
2018-12-09T10:39:53.114Z,6.80
2018-12-09T10:42:23.169Z,6.70
2018-12-09T10:44:53.803Z,6.70
2018-12-09T10:47:23.858Z,6.70
2018-12-09T10:49:53.881Z,6.70
2018-12-09T10:52:23.967Z,6.70
2018-12-09T10:54:54.010Z,6.70
2018-12-09T10:57:24.057Z,6.60
2018-12-09T10:59:54.215Z,6.60
2018-12-09T11:02:24.500Z,6.70
2018-12-09T11:04:54.548Z,6.70
2018-12-09T11:07:24.601Z,6.70
2018-12-09T11:09:54.655Z,6.50
2018-12-09T11:12:24.722Z,6.60
2018-12-09T11:14:56.602Z,6.60
2018-12-09T11:17:26.664Z,6.60
2018-12-09T11:19:56.706Z,6.60
2018-12-09T11:22:26.801Z,6.50
2018-12-09T11:24:56.945Z,6.50
2018-12-09T11:27:27.010Z,6.50
2018-12-09T11:29:57.149Z,6.50
2018-12-09T11:32:27.258Z,6.40
2018-12-09T11:34:57.304Z,6.40
2018-12-09T11:37:27.465Z,6.40
2018-12-09T11:39:57.534Z,6.40
2018-12-09T11:42:27.566Z,6.40
2018-12-09T11:44:57.633Z,6.30
2018-12-09T11:47:27.841Z,6.30
2018-12-09T11:49:57.893Z,6.40
2018-12-09T11:52:28.010Z,6.40
2018-12-09T11:54:58.160Z,6.40
2018-12-09T11:57:28.201Z,6.50
2018-12-09T11:59:58.266Z,6.50
2018-12-09T12:02:28.337Z,6.50
2018-12-09T12:04:58.393Z,6.40
2018-12-09T12:07:28.530Z,6.40
2018-12-09T12:09:58.831Z,6.30
2018-12-09T12:12:28.870Z,6.30
2018-12-09T12:14:58.935Z,6.30
2018-12-09T12:17:28.970Z,6.30
2018-12-09T12:19:59.028Z,6.30
2018-12-09T12:22:29.068Z,6.30
2018-12-09T12:24:59.144Z,6.30
2018-12-09T12:27:29.265Z,6.40
2018-12-09T12:29:59.343Z,6.30
2018-12-09T12:32:29.378Z,6.40
2018-12-09T12:34:59.450Z,6.30
2018-12-09T12:37:29.590Z,6.40
2018-12-09T12:39:59.673Z,6.50
2018-12-09T12:42:29.821Z,6.50
2018-12-09T12:45:00.161Z,6.50
2018-12-09T12:47:30.204Z,6.50
2018-12-09T12:50:00.527Z,6.60
2018-12-09T12:52:30.577Z,6.60
2018-12-09T12:55:00.632Z,6.60
2018-12-09T12:57:30.681Z,6.50
2018-12-09T13:00:00.741Z,6.50
2018-12-09T13:02:31.280Z,6.40
2018-12-09T13:05:01.352Z,6.50
2018-12-09T13:07:31.529Z,6.50
2018-12-09T13:10:01.579Z,6.50
2018-12-09T13:12:31.622Z,6.50
2018-12-09T13:15:01.784Z,6.50
2018-12-09T13:17:31.828Z,6.50
2018-12-09T13:20:01.873Z,6.50
2018-12-09T13:22:31.918Z,6.60
2018-12-09T13:25:02.087Z,6.60
2018-12-09T13:27:32.437Z,6.50
2018-12-09T13:30:02.573Z,6.50
2018-12-09T13:32:32.725Z,6.50
2018-12-09T13:35:02.790Z,6.60
2018-12-09T13:37:32.833Z,6.70
2018-12-09T13:40:02.910Z,6.60
2018-12-09T13:42:33.028Z,6.60
2018-12-09T13:45:03.086Z,6.50
2018-12-09T13:47:33.128Z,6.50
2018-12-09T13:50:03.197Z,6.50
2018-12-09T13:52:33.234Z,6.50
2018-12-09T13:55:03.297Z,6.60
2018-12-09T13:57:33.346Z,6.50
2018-12-09T14:00:03.785Z,6.50
2018-12-09T14:02:33.829Z,6.50
2018-12-09T14:05:04.676Z,6.60
2018-12-09T14:07:34.713Z,6.50
2018-12-09T14:10:05.933Z,6.50
2018-12-09T14:12:35.974Z,6.40
2018-12-09T14:15:06.992Z,6.40
2018-12-09T14:17:37.037Z,6.30
2018-12-09T14:20:07.765Z,6.30
2018-12-09T14:22:37.808Z,6.40
2018-12-09T14:25:07.958Z,6.30
2018-12-09T14:27:38.011Z,6.40
2018-12-09T14:30:08.242Z,6.40
2018-12-09T14:32:38.285Z,6.30
2018-12-09T14:35:08.886Z,6.30
2018-12-09T14:37:39.178Z,6.30
2018-12-09T14:40:09.393Z,6.30
2018-12-09T14:42:39.446Z,6.20
2018-12-09T14:45:14.658Z,6.20
2018-12-09T14:47:44.699Z,6.10
2018-12-09T14:50:14.771Z,6.20
2018-12-09T14:52:44.817Z,6.20
2018-12-09T14:55:14.985Z,6.20
2018-12-09T14:57:45.035Z,6.20
2018-12-09T15:00:15.098Z,6.20
2018-12-09T15:02:45.141Z,6.20
2018-12-09T15:05:15.314Z,6.20
2018-12-09T15:07:45.431Z,6.20
2018-12-09T15:10:15.749Z,6.30
2018-12-09T15:12:45.873Z,6.20
2018-12-09T15:15:17.554Z,6.20
2018-12-09T15:17:47.653Z,6.20
2018-12-09T15:20:17.730Z,6.20
2018-12-09T15:22:47.769Z,6.20
2018-12-09T15:25:17.838Z,6.30
2018-12-09T15:27:47.892Z,6.30
2018-12-09T15:30:17.954Z,6.20
2018-12-09T15:32:48.003Z,6.30
2018-12-09T15:35:18.056Z,6.30
2018-12-09T15:37:48.601Z,6.30
2018-12-09T15:40:18.706Z,6.20
2018-12-09T15:42:48.738Z,6.30
2018-12-09T15:45:18.905Z,6.30
2018-12-09T15:47:48.945Z,6.30
2018-12-09T15:50:18.993Z,6.30
2018-12-09T15:52:49.078Z,6.20
2018-12-09T15:55:19.133Z,6.20
2018-12-09T15:57:49.268Z,6.20
2018-12-09T16:00:19.581Z,6.20
2018-12-09T16:02:49.629Z,6.20
2018-12-09T16:05:19.689Z,6.20
2018-12-09T16:07:49.752Z,6.20
2018-12-09T16:10:19.821Z,6.20
2018-12-09T16:12:49.853Z,6.20
2018-12-09T16:15:25.072Z,6.20
2018-12-09T16:17:55.129Z,6.20
2018-12-09T16:20:25.209Z,6.20
2018-12-09T16:22:55.240Z,6.20
2018-12-09T16:25:25.503Z,6.30
2018-12-09T16:27:55.549Z,6.20
2018-12-09T16:30:29.491Z,6.20
2018-12-09T16:32:59.565Z,6.20
2018-12-09T16:35:29.632Z,6.20
2018-12-09T16:37:59.678Z,6.20
2018-12-09T16:40:30.035Z,6.20
2018-12-09T16:43:01.356Z,6.20
2018-12-09T16:45:31.686Z,6.10
2018-12-09T16:48:01.991Z,6.10
2018-12-09T16:50:32.504Z,6.10
2018-12-09T16:53:02.690Z,6.10
2018-12-09T16:55:33.621Z,6.10
2018-12-09T16:58:04.369Z,6.10
2018-12-09T17:00:34.777Z,6.10
2018-12-09T17:03:04.817Z,6.20
2018-12-09T17:05:34.910Z,6.20
2018-12-09T17:08:05.274Z,6.30
2018-12-09T17:10:35.954Z,6.30
2018-12-09T17:13:09.155Z,6.30
2018-12-09T17:15:40.453Z,6.30
2018-12-09T17:18:12.833Z,6.20
2018-12-09T17:20:43.798Z,6.30
2018-12-09T17:23:13.847Z,6.30
2018-12-09T17:25:45.907Z,6.30
2018-12-09T17:28:16.902Z,6.30
2018-12-09T17:30:46.994Z,6.30
2018-12-09T17:33:18.099Z,6.30
2018-12-09T17:35:48.272Z,6.30
2018-12-09T17:38:26.035Z,6.40
2018-12-09T17:40:56.109Z,6.40
2018-12-09T17:43:27.154Z,6.40
2018-12-09T17:45:57.213Z,6.40
2018-12-09T17:48:27.278Z,6.50
2018-12-09T17:50:57.338Z,6.50
2018-12-09T17:53:27.571Z,6.50
2018-12-09T17:55:57.658Z,6.50
2018-12-09T17:58:30.618Z,6.50
2018-12-09T18:01:02.387Z,6.50
2018-12-09T18:03:35.449Z,6.60
2018-12-09T18:06:07.149Z,6.60
2018-12-09T18:08:37.500Z,6.60
2018-12-09T18:11:07.579Z,6.60
2018-12-09T18:13:38.679Z,6.60
2018-12-09T18:16:08.924Z,6.60
2018-12-09T18:18:39.152Z,6.60
2018-12-09T18:21:11.602Z,6.60
2018-12-09T18:23:41.747Z,6.60
2018-12-09T18:26:12.581Z,6.60
2018-12-09T18:28:42.631Z,6.60
2018-12-09T18:31:12.698Z,6.60
2018-12-09T18:33:44.208Z,6.60
2018-12-09T18:36:15.365Z,6.60
2018-12-09T18:38:45.856Z,6.60
2018-12-09T18:41:16.718Z,6.60
2018-12-09T18:43:48.329Z,6.60
2018-12-09T18:46:18.418Z,6.60
2018-12-09T18:48:48.470Z,6.70
2018-12-09T18:51:18.543Z,6.70
2018-12-09T18:53:48.606Z,6.70
2018-12-09T18:56:18.678Z,6.70
2018-12-09T18:58:48.736Z,6.70
2018-12-09T19:01:18.808Z,6.70
2018-12-09T19:03:48.858Z,6.70
2018-12-09T19:06:19.414Z,6.70
2018-12-09T19:08:49.638Z,6.80
2018-12-09T19:11:19.855Z,6.80
2018-12-09T19:13:49.953Z,6.80
2018-12-09T19:16:20.222Z,6.70
2018-12-09T19:18:50.258Z,6.70
2018-12-09T19:21:21.229Z,6.70
2018-12-09T19:23:51.274Z,6.70
2018-12-09T19:26:21.434Z,6.80
2018-12-09T19:28:51.473Z,6.80
2018-12-09T19:31:21.540Z,6.80
2018-12-09T19:33:51.577Z,6.80
2018-12-09T19:36:21.637Z,6.50
2018-12-09T19:38:51.713Z,6.00
2018-12-09T19:41:21.793Z,5.70
2018-12-09T19:43:52.538Z,5.50
2018-12-09T19:46:23.298Z,5.50
2018-12-09T19:48:53.341Z,5.60
2018-12-09T19:51:23.415Z,5.70
2018-12-09T19:53:53.450Z,5.80
2018-12-09T19:56:23.644Z,5.90
2018-12-09T19:58:53.715Z,6.00
2018-12-09T20:01:23.790Z,6.00
2018-12-09T20:03:53.850Z,6.00
2018-12-09T20:06:24.092Z,6.00
2018-12-09T20:08:54.289Z,6.10
2018-12-09T20:11:24.497Z,6.10
2018-12-09T20:13:54.538Z,6.20
2018-12-09T20:16:25.197Z,6.30
2018-12-09T20:18:55.228Z,6.30
2018-12-09T20:21:25.290Z,6.30
2018-12-09T20:23:59.206Z,6.30
2018-12-09T20:26:30.073Z,6.30
2018-12-09T20:29:00.105Z,6.30
2018-12-09T20:31:30.171Z,6.30
2018-12-09T20:34:00.213Z,6.30
2018-12-09T20:36:30.256Z,6.30
2018-12-09T20:39:00.501Z,6.40
2018-12-09T20:41:30.577Z,6.30
2018-12-09T20:44:00.616Z,6.30
2018-12-09T20:46:30.666Z,6.40
2018-12-09T20:49:00.722Z,6.40
2018-12-09T20:51:30.776Z,6.40
2018-12-09T20:54:00.817Z,6.40
2018-12-09T20:56:31.102Z,6.40
2018-12-09T20:59:01.145Z,6.40
2018-12-09T21:01:31.813Z,6.30
2018-12-09T21:04:01.948Z,6.30
2018-12-09T21:06:32.004Z,6.20
2018-12-09T21:09:07.257Z,6.20
2018-12-09T21:11:37.321Z,6.20
2018-12-09T21:14:07.428Z,6.20
2018-12-09T21:16:37.543Z,6.20
2018-12-09T21:19:07.669Z,6.20
2018-12-09T21:21:37.828Z,6.30
2018-12-09T21:24:07.870Z,6.30
2018-12-09T21:26:37.933Z,6.30
2018-12-09T21:29:07.963Z,6.30
2018-12-09T21:31:38.124Z,6.30
2018-12-09T21:34:08.174Z,6.30
2018-12-09T21:36:38.229Z,6.30
2018-12-09T21:39:08.345Z,6.30
2018-12-09T21:41:38.403Z,6.30
2018-12-09T21:44:08.442Z,6.30
2018-12-09T21:46:38.502Z,6.20
2018-12-09T21:49:08.546Z,6.20
2018-12-09T21:51:38.605Z,6.30
2018-12-09T21:54:08.665Z,6.20
2018-12-09T21:56:38.728Z,6.30
2018-12-09T21:59:08.782Z,6.40
2018-12-09T22:01:38.920Z,6.40
2018-12-09T22:04:08.981Z,6.30
2018-12-09T22:06:39.033Z,6.20
2018-12-09T22:09:09.084Z,6.10
2018-12-09T22:11:39.172Z,6.20
2018-12-09T22:14:09.402Z,6.10
2018-12-09T22:16:39.442Z,6.20
2018-12-09T22:19:09.499Z,6.10
2018-12-09T22:21:39.549Z,6.10
2018-12-09T22:24:09.609Z,6.10
2018-12-09T22:26:39.644Z,6.10
2018-12-09T22:29:09.809Z,6.00
2018-12-09T22:31:39.857Z,6.00
2018-12-09T22:34:09.921Z,6.00
2018-12-09T22:36:39.956Z,6.00
2018-12-09T22:39:10.230Z,6.10
2018-12-09T22:41:40.265Z,6.10
2018-12-09T22:44:10.389Z,6.10
2018-12-09T22:46:40.421Z,6.00
2018-12-09T22:49:10.489Z,6.00
2018-12-09T22:51:40.635Z,6.10
2018-12-09T22:54:10.709Z,6.10
2018-12-09T22:56:40.745Z,6.10
2018-12-09T22:59:10.800Z,6.10
2018-12-09T23:01:42.594Z,6.10
2018-12-09T23:04:12.649Z,6.10
2018-12-09T23:06:42.688Z,6.10
2018-12-09T23:09:12.753Z,6.00
2018-12-09T23:11:42.898Z,6.00
2018-12-09T23:14:12.962Z,6.00
2018-12-09T23:16:43.068Z,6.00
2018-12-09T23:19:13.138Z,6.00
2018-12-09T23:21:43.277Z,6.00
2018-12-09T23:24:13.342Z,6.00
2018-12-09T23:26:43.448Z,6.00
2018-12-09T23:29:13.509Z,6.00
2018-12-09T23:31:43.659Z,6.00
2018-12-09T23:34:13.814Z,6.00
2018-12-09T23:36:43.879Z,6.00
2018-12-09T23:39:14.000Z,6.00
2018-12-09T23:41:44.128Z,6.00
2018-12-09T23:44:14.285Z,6.00
2018-12-09T23:46:44.428Z,6.00
2018-12-09T23:49:14.490Z,6.00
2018-12-09T23:51:44.632Z,6.00
2018-12-09T23:54:14.802Z,6.00
2018-12-09T23:56:44.837Z,6.10
2018-12-09T23:59:14.897Z,6.10
